Terminal Aerodrome Forecast
Issued by NWS Shreveport, LA

Home | Current Version | Previous Version | Text Only | Print | Product List | Glossary On
Versions: 1 2 3 4 5 6 7 8 9 10 11 12 13
000
FTUS44 KSHV 192324
TAFSHV
TAF
KSHV 192324Z 2000/2024 16007KT P6SM OVC045
      TEMPO 2004/2008 OVC025
     FM200800 16008KT P6SM OVC015
      TEMPO 2010/2014 OVC008
     FM201400 16010KT P6SM OVC008
     FM202000 17012KT P6SM OVC015=

USA.gov is the U.S. government's official web portal to all federal, state and local government web resources and services.